METAR AND TAF INFORMATION
METAR FOR EHGR
ADDS - METARS form results

(1553 UTC 25 November 2020)
Data provider http://aviationweather.gov/metar/data/
 
METAR text: EHGR 251530Z AUTO 20006KT 150V220 9999 OVC220 09/06 Q1016 BLU
Conditions at: EHGR (GILZE-RIJEN RNLA, NL) observed 1530 UTC 25 November 2020
Temperature: 9.0°C (48°F)
Dewpoint: 6.0°C (43°F) [RH = 81%]
Pressure (altimeter): 30.00 inches Hg (1016.0 mb)
Winds: from the SSW (200 degrees) at 7 MPH (6 knots; 3.1 m/s)
Visibility: 6 or more miles (10+ km)
Ceiling: 22000 feet AGL
Clouds: overcast cloud deck at 22000 feet AGL
Weather: no significant weather observed at this time

METAR text: EHGR 251525Z AUTO 19006KT 140V220 9999 OVC240 08/06 Q1015 BLU NOSIG
Conditions at: EHGR (GILZE-RIJEN RNLA, NL) observed 1525 UTC 25 November 2020
Temperature: 8.0°C (46°F)
Dewpoint: 6.0°C (43°F) [RH = 87%]
Pressure (altimeter): 29.97 inches Hg (1015.0 mb)
Winds: from the S (190 degrees) at 7 MPH (6 knots; 3.1 m/s)
Visibility: 6 or more miles (10+ km)
Ceiling: 24000 feet AGL
Clouds: overcast cloud deck at 24000 feet AGL
Weather: no significant weather observed at this time

METAR text: EHGR 251455Z AUTO 18007KT 150V220 9999 OVC220 09/06 Q1015 BLU NOSIG
Conditions at: EHGR (GILZE-RIJEN RNLA, NL) observed 1455 UTC 25 November 2020
Temperature: 9.0°C (48°F)
Dewpoint: 6.0°C (43°F) [RH = 81%]
Pressure (altimeter): 29.97 inches Hg (1015.0 mb)
Winds: from the S (180 degrees) at 8 MPH (7 knots; 3.6 m/s)
Visibility: 6 or more miles (10+ km)
Ceiling: 22000 feet AGL
Clouds: overcast cloud deck at 22000 feet AGL
Weather: no significant weather observed at this time

Forecast for: EHGR (GILZE-RIJEN RNLA, NL)
Text: TAF EHGR 251355Z 2514/2602 18008KT 9999 SCT030
Forecast period: 1400 UTC 25 November 2020 to 0200 UTC 26 November 2020
Forecast type: FROM: standard forecast or significant change
Winds: from the S (180 degrees) at 9 MPH (8 knots; 4.1 m/s)
Visibility: 6 or more miles (10+ km)
Ceiling: at least 12,000 feet AGL
Clouds: scattered clouds at 3000 feet AGL
Weather: no significant weather forecast for this period

 AIRPORT MAP

 RUNWAY INFORMATION
Runway 02 Runway length 6549 ft Runway width 98 ft
Runway elevation 49 ft Runway displaced threshold 191 ft Runway heading 18
Runway 20 Runway length 6549 ft Runway width 98 ft
Runway elevation 40 ft Runway displaced threshold 192 ft Runway heading 198
Runway 10 Runway length 9118 ft Runway width 148 ft
Runway elevation 42 ft Runway displaced threshold 427 ft Runway heading 100
Runway 28 Runway length 9118 ft Runway width 148 ft
Runway elevation 38 ft Runway displaced threshold 331 ft Runway heading 280

 AIRPORT FREQUENCIES
Type ARR Name RAPCON WES Frequency 123.575 MHZ
Type GND Name GND Frequency 23.492 MHZ
Type TWR Name TWR Frequency 125.325 MHZ

 AIRPORT NEAR NAVIGATION AIDS
Type TACAN Name Gilze Rijen Frequency 116400 KHZ